Time;durP1;ratioP1;P1;durP2;ratioP2;P2;SDS_P1;SDS_P2;PMS_P1;PMS_P2;Temp;Humidity;BMP_temperature;BMP_pressure;BME280_temperature;BME280_humidity;BME280_pressure;Samples;Min_cycle;Max_cycle;Signal;HPM_P1;HPM_P2
2023/07/29 00:02:45;;;;;;;10.15;3.42;;;;;;;24.16;62.88;100503.97;6285652;22;20019;-86
2023/07/29 00:05:37;;;;;;;14.13;3.97;;;;;;;24.20;63.15;100513.06;6241971;22;20027;-87
2023/07/29 00:08:29;;;;;;;9.07;3.53;;;;;;;24.32;62.62;100509.78;6263017;22;20022;-88
2023/07/29 00:11:24;;;;;;;5.65;3.10;;;;;;;24.51;61.90;100502.81;6263673;22;20023;-88
2023/07/29 00:14:19;;;;;;;10.65;3.88;;;;;;;24.42;61.78;100497.75;6263326;22;20023;-87
2023/07/29 00:17:11;;;;;;;8.25;3.25;;;;;;;24.44;61.46;100486.19;6263644;22;20023;-88
2023/07/29 00:20:06;;;;;;;8.50;3.88;;;;;;;24.23;62.01;100482.47;6262950;22;20026;-87
2023/07/29 00:22:57;;;;;;;;;;;;;;;24.31;61.67;100479.63;6264023;22;20027;-88
2023/07/29 00:25:52;;;;;;;6.90;2.72;;;;;;;24.41;61.58;100481.47;6263741;22;20054;-88
2023/07/29 00:28:44;;;;;;;7.18;3.30;;;;;;;24.51;62.05;100475.81;6263152;22;20469;-88
2023/07/29 00:31:38;;;;;;;6.97;3.17;;;;;;;24.75;61.01;100475.88;6263357;22;20022;-88
2023/07/29 00:34:30;;;;;;;8.52;3.00;;;;;;;24.59;60.81;100482.03;6285094;22;20481;-88
2023/07/29 00:37:23;;;;;;;5.57;2.55;;;;;;;24.60;61.24;100480.84;6263559;22;20022;-87
2023/07/29 00:40:25;;;;;;;7.57;2.75;;;;;;;24.80;60.89;100486.56;6262971;22;20023;-87
2023/07/29 00:43:15;;;;;;;8.05;3.78;;;;;;;24.51;59.68;100489.69;6285956;22;20026;-88
2023/07/29 00:46:09;;;;;;;12.07;3.38;;;;;;;24.32;60.27;100486.75;6264773;22;20023;-88
2023/07/29 00:49:02;;;;;;;9.50;3.55;;;;;;;24.07;60.86;100487.00;6262170;22;20022;-85
2023/07/29 00:51:57;;;;;;;8.77;3.15;;;;;;;24.12;61.33;100490.13;6262299;22;20042;-86
2023/07/29 00:54:52;;;;;;;11.15;3.42;;;;;;;24.14;60.88;100482.13;6262577;22;20027;-86
2023/07/29 00:57:48;;;;;;;6.97;3.10;;;;;;;23.99;61.30;100485.47;6285525;22;20026;-86
2023/07/29 01:00:38;;;;;;;6.95;3.00;;;;;;;24.10;61.52;100491.72;6262460;22;20022;-87
2023/07/29 01:03:30;;;;;;;4.50;2.97;;;;;;;23.93;63.03;100485.13;6262793;22;20022;-87
2023/07/29 01:06:51;;;;;;;6.57;3.10;;;;;;;23.99;62.25;100485.47;6263254;22;20073;-88
2023/07/29 01:09:58;;;;;;;7.85;3.45;;;;;;;23.78;64.06;100501.13;6262901;22;20022;-88
2023/07/29 01:12:58;;;;;;;12.75;3.50;;;;;;;23.70;64.09;100505.19;6263254;22;20046;-88
2023/07/29 01:16:02;;;;;;;4.40;2.80;;;;;;;23.62;64.47;100508.44;6263571;22;20022;-89
2023/07/29 01:19:01;;;;;;;5.95;3.40;;;;;;;23.68;63.87;100515.91;6262159;22;20019;-86
2023/07/29 01:21:57;;;;;;;5.32;3.28;;;;;;;23.65;64.13;100505.63;6262381;22;20354;-86
2023/07/29 01:24:51;;;;;;;7.57;3.72;;;;;;;23.61;64.22;100507.66;6222501;22;20026;-86
2023/07/29 01:27:43;;;;;;;7.10;3.40;;;;;;;23.58;64.34;100500.13;6262738;22;20026;-87
2023/07/29 01:30:45;;;;;;;5.95;3.47;;;;;;;23.43;65.76;100499.41;6284351;22;20019;-86
2023/07/29 01:33:48;;;;;;;4.82;3.15;;;;;;;23.59;63.81;100504.47;6285299;22;20022;-87
2023/07/29 01:36:47;;;;;;;7.72;3.70;;;;;;;23.81;62.66;100503.09;6284342;22;20485;-87
2023/07/29 01:39:43;;;;;;;6.45;3.75;;;;;;;23.90;61.70;100510.16;6262113;22;20023;-86
2023/07/29 01:42:37;;;;;;;10.80;3.25;;;;;;;23.96;61.62;100511.31;6284334;22;20038;-86
2023/07/29 01:45:32;;;;;;;6.30;3.33;;;;;;;24.02;61.50;100507.69;6285795;22;20496;-85
2023/07/29 01:48:27;;;;;;;5.35;3.55;;;;;;;23.92;61.78;100496.66;6263410;22;20354;-86
2023/07/29 01:51:22;;;;;;;9.63;2.85;;;;;;;23.79;62.58;100494.38;6262659;22;20474;-86
2023/07/29 01:54:14;;;;;;;7.70;3.83;;;;;;;23.86;62.39;100494.34;6264138;22;20027;-86
2023/07/29 01:57:08;;;;;;;6.30;3.60;;;;;;;23.50;63.74;100501.38;6262575;22;20022;-86
2023/07/29 02:00:03;;;;;;;7.30;3.72;;;;;;;23.35;64.23;100503.44;6242022;22;20027;-87
2023/07/29 02:03:07;;;;;;;7.78;3.70;;;;;;;23.26;64.37;100494.75;6285418;22;20042;-87
2023/07/29 02:06:01;;;;;;;10.45;3.15;;;;;;;23.47;63.84;100493.84;6262773;22;20027;-86
2023/07/29 02:08:56;;;;;;;10.15;3.42;;;;;;;23.44;63.94;100494.66;6262025;22;20035;-86
2023/07/29 02:11:48;;;;;;;6.25;3.10;;;;;;;23.53;63.59;100496.97;6242731;22;20031;-86
2023/07/29 02:14:42;;;;;;;6.32;3.50;;;;;;;23.47;63.25;100499.41;6242889;22;20027;-87
2023/07/29 02:17:34;;;;;;;6.38;3.50;;;;;;;23.43;62.91;100495.84;6285203;22;20023;-85
2023/07/29 02:20:29;;;;;;;16.30;3.70;;;;;;;23.32;63.12;100492.34;6241404;22;20026;-85
2023/07/29 02:23:24;;;;;;;10.43;3.38;;;;;;;22.99;64.39;100491.78;6261970;22;20030;-85
2023/07/29 02:26:16;;;;;;;10.77;4.28;;;;;;;23.00;64.75;100498.13;6265314;22;20060;-85
2023/07/29 02:29:09;;;;;;;14.68;4.07;;;;;;;23.18;64.91;100498.78;6264637;22;20023;-88
2023/07/29 02:32:04;;;;;;;9.65;3.90;;;;;;;23.25;64.18;100497.97;6287662;22;20034;-84
2023/07/29 02:34:59;;;;;;;8.63;3.60;;;;;;;23.29;64.40;100493.16;6263695;22;20018;-85
2023/07/29 02:37:53;;;;;;;9.02;3.70;;;;;;;23.23;64.16;100484.47;6264034;22;20021;-85
2023/07/29 02:40:46;;;;;;;10.10;4.22;;;;;;;23.13;64.09;100492.88;6285282;22;20343;-86
2023/07/29 02:43:40;;;;;;;4.72;2.55;;;;;;;23.42;65.17;100502.56;6264675;22;20022;-89
2023/07/29 02:46:32;;;;;;;9.25;3.85;;;;;;;23.19;64.12;100511.47;6264654;22;20027;-88
2023/07/29 02:49:27;;;;;;;9.23;4.15;;;;;;;23.17;63.75;100507.50;6286880;22;20023;-86
2023/07/29 02:52:19;;;;;;;6.53;3.78;;;;;;;22.97;64.95;100502.47;6264228;22;20023;-86
2023/07/29 02:55:14;;;;;;;6.93;3.90;;;;;;;22.92;65.66;100504.88;6264134;22;20022;-87
2023/07/29 02:58:08;;;;;;;7.43;3.45;;;;;;;23.03;65.36;100508.38;6244002;22;20027;-86
2023/07/29 03:01:12;;;;;;;6.75;3.70;;;;;;;22.94;65.09;100502.50;6263528;22;20485;-86
2023/07/29 03:04:06;;;;;;;7.03;3.63;;;;;;;22.91;65.81;100500.50;6285616;22;20023;-86
2023/07/29 03:07:00;;;;;;;15.00;4.53;;;;;;;22.80;65.47;100500.59;6263631;22;20195;-86
2023/07/29 03:09:50;;;;;;;9.55;3.88;;;;;;;22.73;65.99;100511.69;6263768;22;20038;-87
2023/07/29 03:12:44;;;;;;;7.88;3.75;;;;;;;22.89;65.49;100514.81;6264142;22;20026;-88
2023/07/29 03:15:41;;;;;;;6.07;3.72;;;;;;;22.89;65.04;100514.00;6264114;22;20026;-87
2023/07/29 03:18:36;;;;;;;9.00;3.85;;;;;;;22.86;65.66;100503.72;6263688;22;20065;-87
2023/07/29 03:21:31;;;;;;;12.45;2.70;;;;;;;23.05;65.70;100510.75;6263953;22;20038;-87
2023/07/29 03:24:23;;;;;;;5.55;2.70;;;;;;;23.36;64.58;100510.56;6264179;22;20022;-87
2023/07/29 03:27:18;;;;;;;4.72;2.60;;;;;;;23.67;63.97;100514.31;6264052;22;20346;-89
2023/07/29 03:30:08;;;;;;;7.10;3.03;;;;;;;23.90;63.20;100532.38;6263562;22;20027;-87
2023/07/29 03:32:55;;;;;;;6.35;3.00;;;;;;;24.06;62.26;100518.75;6263994;22;20038;-88
2023/07/29 03:35:50;;;;;;;7.40;3.13;;;;;;;24.27;61.36;100518.56;6263380;22;20022;-87
2023/07/29 03:38:44;;;;;;;8.73;3.08;;;;;;;24.36;60.77;100516.09;6262907;22;20023;-86
2023/07/29 03:41:39;;;;;;;7.05;3.33;;;;;;;24.38;60.63;100505.31;6243403;22;20026;-87
2023/07/29 03:44:31;;;;;;;9.60;3.15;;;;;;;24.41;60.37;100512.84;6263669;22;20018;-87
2023/07/29 03:47:22;;;;;;;6.78;2.92;;;;;;;24.43;60.20;100510.44;6263714;22;20026;-87
2023/07/29 03:50:14;;;;;;;7.10;3.25;;;;;;;24.46;60.02;100506.06;6262840;22;20418;-86
2023/07/29 03:53:09;;;;;;;6.00;2.75;;;;;;;24.49;60.04;100506.00;6263189;22;20030;-85
2023/07/29 03:56:04;;;;;;;4.30;3.30;;;;;;;24.51;59.66;100519.50;6285465;22;20038;-88
2023/07/29 03:59:06;;;;;;;6.72;3.35;;;;;;;24.54;59.52;100527.00;6285848;22;20023;-88
2023/07/29 04:02:01;;;;;;;5.10;2.92;;;;;;;24.52;59.68;100530.22;6263860;22;20023;-88
2023/07/29 04:04:56;;;;;;;8.43;3.58;;;;;;;24.55;59.30;100537.72;6263906;22;20022;-88
2023/07/29 04:07:50;;;;;;;4.43;3.20;;;;;;;24.54;59.40;100538.13;6263447;22;20194;-86
2023/07/29 04:10:45;;;;;;;8.02;2.83;;;;;;;24.54;59.29;100544.47;6263023;22;20027;-85
2023/07/29 04:13:37;;;;;;;5.78;2.92;;;;;;;24.58;59.37;100548.00;6263135;22;20347;-87
2023/07/29 04:16:29;;;;;;;4.80;2.67;;;;;;;24.59;59.04;100548.78;6285935;22;20018;-86
2023/07/29 04:19:16;;;;;;;6.60;3.10;;;;;;;24.58;59.16;100547.22;6261091;22;20039;-85
2023/07/29 04:22:14;;;;;;;5.15;2.70;;;;;;;24.61;59.19;100551.94;6259045;22;20023;-86
2023/07/29 04:25:10;;;;;;;4.78;3.25;;;;;;;23.89;60.29;100548.25;6261004;22;20019;-85
2023/07/29 04:28:04;;;;;;;7.97;3.80;;;;;;;23.42;61.75;100542.22;6262637;22;20038;-85
2023/07/29 04:30:59;;;;;;;6.88;2.90;;;;;;;23.26;64.14;100555.81;6279329;22;20351;-86
2023/07/29 04:33:54;;;;;;;12.77;4.20;;;;;;;23.27;62.88;100562.16;6261543;22;20023;-85
2023/07/29 04:36:48;;;;;;;11.90;3.35;;;;;;;23.64;62.77;100558.78;6261609;22;20382;-85
2023/07/29 04:39:43;;;;;;;6.82;2.70;;;;;;;23.94;61.57;100560.91;6262275;22;20026;-85
2023/07/29 04:42:32;;;;;;;7.57;3.55;;;;;;;24.10;60.93;100556.41;6262796;22;20030;-86
2023/07/29 04:45:30;;;;;;;6.72;3.10;;;;;;;24.11;60.66;100544.09;6262926;22;20022;-86
2023/07/29 04:48:25;;;;;;;5.38;2.95;;;;;;;24.03;61.00;100541.78;6262592;22;20038;-85
2023/07/29 04:51:20;;;;;;;9.48;3.50;;;;;;;24.05;60.88;100544.94;6261776;22;20343;-85
2023/07/29 04:54:14;;;;;;;5.18;2.88;;;;;;;24.18;60.93;100548.81;6264466;22;20358;-86
2023/07/29 04:57:09;;;;;;;8.13;3.80;;;;;;;24.32;60.36;100553.47;6262538;22;20347;-84
2023/07/29 05:00:05;;;;;;;7.63;3.10;;;;;;;24.39;60.39;100559.72;6282636;22;20354;-85
2023/07/29 05:03:00;;;;;;;6.90;3.30;;;;;;;24.36;60.20;100548.66;6284890;22;20026;-84
2023/07/29 05:05:55;;;;;;;5.05;2.28;;;;;;;24.34;60.05;100559.38;6262476;22;20023;-86
2023/07/29 05:08:49;;;;;;;13.18;3.20;;;;;;;24.46;59.89;100570.00;6262424;22;20025;-86
2023/07/29 05:11:44;;;;;;;6.97;3.50;;;;;;;24.52;59.66;100574.69;6262794;22;20035;-86
2023/07/29 05:14:39;;;;;;;8.77;3.45;;;;;;;24.54;59.64;100583.41;6262730;22;20023;-86
2023/07/29 05:17:33;;;;;;;8.65;3.33;;;;;;;24.57;59.56;100584.56;6262618;22;20023;-86
2023/07/29 05:20:25;;;;;;;;;;;;;;;24.59;59.73;100577.38;6262657;22;20019;-86
2023/07/29 05:23:18;;;;;;;13.10;4.40;;;;;;;24.47;60.70;100577.13;6262721;22;19907;-87
2023/07/29 05:26:12;;;;;;;6.90;3.58;;;;;;;24.35;60.92;100581.22;6262795;22;20023;-86
2023/07/29 05:29:05;;;;;;;6.28;2.90;;;;;;;24.54;60.22;100580.63;6262304;22;20018;-86
2023/07/29 05:31:56;;;;;;;8.15;2.90;;;;;;;24.60;60.14;100580.97;6260433;22;20019;-86
2023/07/29 05:34:49;;;;;;;9.55;2.75;;;;;;;24.64;60.01;100588.06;6303140;22;20022;-82
2023/07/29 05:37:44;;;;;;;11.60;3.35;;;;;;;24.65;59.85;100592.41;6274592;22;20026;-84
2023/07/29 05:40:38;;;;;;;7.53;3.92;;;;;;;24.36;61.22;100579.22;6285946;22;20026;-85
2023/07/29 05:43:33;;;;;;;10.77;3.97;;;;;;;24.19;61.97;100581.75;6293345;22;20026;-86
2023/07/29 05:46:25;;;;;;;24.95;4.35;;;;;;;24.18;62.43;100593.28;6284266;22;20018;-84
2023/07/29 05:49:19;;;;;;;5.78;3.10;;;;;;;24.26;63.01;100589.25;6283851;22;20022;-83
2023/07/29 05:52:15;;;;;;;11.43;3.58;;;;;;;24.19;62.90;100567.06;6283978;22;20062;-86
2023/07/29 05:55:07;;;;;;;15.23;3.95;;;;;;;24.35;62.43;100567.31;6282942;22;20038;-85
2023/07/29 05:58:01;;;;;;;11.80;3.90;;;;;;;24.39;62.00;100578.41;6282373;22;20018;-82
2023/07/29 06:00:56;;;;;;;8.95;3.45;;;;;;;24.35;62.37;100574.88;6283657;22;20022;-84
2023/07/29 06:03:50;;;;;;;9.75;4.32;;;;;;;24.41;61.57;100573.22;6285916;22;20034;-84
2023/07/29 06:06:45;;;;;;;12.63;3.88;;;;;;;24.44;61.64;100575.97;6286421;22;20354;-84
2023/07/29 06:09:39;;;;;;;6.03;3.88;;;;;;;24.52;61.71;100580.25;6285503;22;20481;-82
2023/07/29 06:12:34;;;;;;;12.15;4.53;;;;;;;24.59;61.90;100579.38;6285930;22;20022;-85
2023/07/29 06:15:26;;;;;;;43.85;6.55;;;;;;;24.65;61.25;100578.50;6286311;22;20022;-86
2023/07/29 06:18:20;;;;;;;12.48;5.40;;;;;;;24.65;60.73;100586.84;6285762;22;20038;-85
2023/07/29 06:21:16;;;;;;;7.63;4.10;;;;;;;24.70;61.13;100594.75;6286467;22;20023;-82
2023/07/29 06:24:11;;;;;;;6.97;3.85;;;;;;;24.82;61.28;100593.44;6286366;22;20031;-85
2023/07/29 06:27:06;;;;;;;6.40;3.40;;;;;;;24.97;60.40;100605.22;6286152;22;20026;-86
2023/07/29 06:30:00;;;;;;;8.75;3.60;;;;;;;25.05;60.05;100601.13;6286059;22;20026;-83
2023/07/29 06:32:55;;;;;;;6.50;3.58;;;;;;;25.20;59.62;100610.09;6285984;22;20019;-85
2023/07/29 06:35:49;;;;;;;9.15;4.18;;;;;;;25.19;59.66;100612.09;6285732;22;20027;-85
2023/07/29 06:38:41;;;;;;;;;;;;;;;25.26;58.78;100613.97;6286217;22;20039;-83
2023/07/29 06:41:36;;;;;;;10.55;5.78;;;;;;;25.22;58.17;100616.81;6285364;22;19907;-83
2023/07/29 06:44:30;;;;;;;9.95;4.72;;;;;;;25.32;58.54;100617.88;6285225;22;20113;-80
2023/07/29 06:47:20;;;;;;;9.80;5.88;;;;;;;25.38;58.09;100614.22;6286341;22;20022;-83
2023/07/29 06:50:15;;;;;;;13.60;4.47;;;;;;;25.40;58.13;100611.78;6285655;22;20041;-84
2023/07/29 06:53:04;;;;;;;;;;;;;;;25.42;58.09;100619.75;6280879;22;20019;-83
2023/07/29 06:55:59;;;;;;;8.00;5.22;;;;;;;25.39;58.52;100610.25;6284298;22;19907;-82
2023/07/29 06:58:48;;;;;;;;;;;;;;;25.41;58.93;100623.72;6288149;22;20022;-87
2023/07/29 07:01:43;;;;;;;13.35;4.55;;;;;;;25.42;59.01;100626.09;6285582;22;19907;-84
2023/07/29 07:04:35;;;;;;;14.65;5.55;;;;;;;25.43;59.07;100627.69;6285384;22;20027;-83
2023/07/29 07:07:30;;;;;;;17.02;7.05;;;;;;;25.32;59.53;100627.03;6288880;22;20031;-79
2023/07/29 07:10:24;;;;;;;17.20;5.88;;;;;;;25.39;59.50;100624.16;6285077;22;20030;-82
2023/07/29 07:13:19;;;;;;;12.57;6.85;;;;;;;25.57;58.58;100621.16;6283259;22;20031;-79
2023/07/29 07:16:08;;;;;;;16.38;5.68;;;;;;;25.52;58.46;100616.81;6285469;22;20034;-79
2023/07/29 07:19:03;;;;;;;12.63;5.50;;;;;;;25.67;58.63;100617.41;6285106;22;20026;-81
2023/07/29 07:21:58;;;;;;;27.13;5.65;;;;;;;25.84;58.13;100612.78;6274797;22;20019;-79
2023/07/29 07:24:53;;;;;;;13.55;6.82;;;;;;;25.79;57.66;100611.28;6276013;22;20485;-80
2023/07/29 07:27:45;;;;;;;;;;;;;;;25.81;58.01;100614.41;6286115;22;20019;-79
2023/07/29 07:30:41;;;;;;;10.93;5.15;;;;;;;25.66;57.47;100609.47;6286550;22;19907;-79
2023/07/29 07:33:35;;;;;;;11.68;6.22;;;;;;;25.65;58.56;100613.50;6285425;22;20354;-78
2023/07/29 07:36:30;;;;;;;14.68;6.00;;;;;;;25.66;59.05;100609.47;6286178;22;20026;-80
2023/07/29 07:39:24;;;;;;;11.02;6.47;;;;;;;25.64;59.11;100600.78;6287761;22;20027;-79
2023/07/29 07:42:19;;;;;;;11.77;5.85;;;;;;;25.64;58.71;100598.78;6286147;22;20038;-78
2023/07/29 07:45:14;;;;;;;12.73;4.72;;;;;;;25.67;58.55;100603.50;6286109;22;20023;-80
2023/07/29 07:48:09;;;;;;;11.30;4.65;;;;;;;25.68;58.61;100598.72;6286818;22;20023;-79
2023/07/29 07:50:59;;;;;;;13.85;6.75;;;;;;;26.01;58.54;100600.56;6279005;22;20027;-82
2023/07/29 07:53:49;;;;;;;14.77;7.70;;;;;;;26.85;55.89;100608.63;6283152;22;20043;-81
2023/07/29 07:56:41;;;;;;;13.93;8.38;;;;;;;26.96;55.33;100606.47;6281983;22;20042;-83
2023/07/29 07:59:36;;;;;;;18.63;8.65;;;;;;;28.09;51.71;100614.28;6285634;22;20038;-84
2023/07/29 08:02:28;;;;;;;13.15;7.55;;;;;;;28.72;49.79;100613.91;6287720;22;20046;-81
2023/07/29 08:05:22;;;;;;;14.05;6.47;;;;;;;30.53;44.71;100621.09;6282780;22;20034;-83
2023/07/29 08:08:16;;;;;;;8.23;5.15;;;;;;;34.21;37.42;100620.78;6283308;22;20038;-83
2023/07/29 08:11:08;;;;;;;;;;;;;;;35.93;31.48;100626.78;6283190;22;20023;-84
2023/07/29 08:14:03;;;;;;;11.93;5.28;;;;;;;36.29;30.36;100631.19;6282562;22;19907;-83
2023/07/29 08:16:58;;;;;;;13.27;4.15;;;;;;;39.14;27.02;100619.88;6283056;22;20027;-82
2023/07/29 08:19:50;;;;;;;26.77;6.15;;;;;;;40.13;25.15;100623.94;6281999;22;20030;-83
2023/07/29 08:22:42;;;;;;;14.18;6.03;;;;;;;35.56;32.34;100612.31;6281967;22;20034;-78
2023/07/29 08:25:37;;;;;;;12.85;5.15;;;;;;;37.34;29.32;100610.16;6284984;22;20381;-83
2023/07/29 08:28:27;;;;;;;11.57;5.72;;;;;;;36.31;30.69;100608.81;6284151;22;20026;-84
2023/07/29 08:31:19;;;;;;;7.40;4.05;;;;;;;36.09;31.19;100605.66;6287866;22;20019;-88
2023/07/29 08:34:14;;;;;;;14.52;4.07;;;;;;;33.15;36.25;100611.75;6282680;22;20030;-81
2023/07/29 08:37:08;;;;;;;7.18;3.03;;;;;;;30.75;41.61;100603.50;6278586;22;20022;-81
2023/07/29 08:40:03;;;;;;;7.25;3.10;;;;;;;29.75;43.98;100595.63;6283999;22;20027;-83
2023/07/29 08:43:00;;;;;;;8.40;3.35;;;;;;;29.20;45.50;100587.72;6283593;22;20378;-80
2023/07/29 08:45:55;;;;;;;6.05;3.33;;;;;;;28.71;47.08;100590.69;6284894;22;20027;-81
2023/07/29 08:48:48;;;;;;;9.82;3.70;;;;;;;28.49;47.58;100595.31;6283700;22;20018;-82
2023/07/29 08:51:41;;;;;;;6.47;4.00;;;;;;;28.29;48.20;100586.28;6284276;22;20015;-82
2023/07/29 08:54:33;;;;;;;5.30;2.58;;;;;;;28.19;48.61;100585.28;6285403;22;20022;-81
2023/07/29 08:57:25;;;;;;;6.25;3.95;;;;;;;28.13;48.94;100595.47;6284306;22;20023;-80
2023/07/29 09:00:19;;;;;;;9.63;3.78;;;;;;;27.91;49.48;100586.78;6284142;22;20038;-84
2023/07/29 09:03:11;;;;;;;5.53;3.15;;;;;;;27.84;49.70;100592.53;6282406;22;20022;-84
2023/07/29 09:06:07;;;;;;;7.57;2.85;;;;;;;27.78;49.60;100594.31;6284320;22;20023;-83
2023/07/29 09:08:58;;;;;;;15.70;4.70;;;;;;;27.76;50.63;100595.94;6283953;22;20019;-81
2023/07/29 09:11:52;;;;;;;9.10;5.70;;;;;;;27.84;50.06;100595.31;6283553;22;20014;-82
2023/07/29 09:14:44;;;;;;;11.27;3.42;;;;;;;27.82;49.85;100589.41;6276052;22;20023;-83
2023/07/29 09:17:36;;;;;;;;;;;;;;;27.68;50.26;100591.75;6285180;22;20022;-83
2023/07/29 09:20:35;;;;;;;14.40;3.20;;;;;;;27.43;51.24;100586.72;6282940;22;19907;-81
2023/07/29 09:23:25;;;;;;;6.80;3.00;;;;;;;27.48;51.23;100589.00;6283912;22;20047;-83
2023/07/29 09:26:26;;;;;;;6.68;3.17;;;;;;;27.45;51.14;100584.25;6285205;22;20349;-84
2023/07/29 09:29:21;;;;;;;7.20;4.07;;;;;;;27.50;50.97;100581.78;6283303;22;20354;-83
2023/07/29 09:32:26;;;;;;;11.82;3.75;;;;;;;27.55;51.16;100580.47;6285096;22;20343;-83
2023/07/29 09:35:18;;;;;;;7.43;3.67;;;;;;;27.56;51.04;100587.63;6283215;22;20030;-84
2023/07/29 09:38:16;;;;;;;5.95;4.72;;;;;;;27.60;51.27;100583.53;6283737;22;20023;-84
2023/07/29 09:41:09;;;;;;;8.25;5.43;;;;;;;27.65;51.09;100588.59;6283958;22;20042;-85
2023/07/29 09:44:00;;;;;;;6.18;4.65;;;;;;;27.86;50.15;100589.31;6278125;22;20030;-85
2023/07/29 09:46:53;;;;;;;7.75;4.20;;;;;;;27.87;50.30;100577.69;6284365;22;20023;-84
2023/07/29 09:49:47;;;;;;;8.13;3.67;;;;;;;27.82;50.42;100583.03;6282253;22;20023;-82
2023/07/29 09:52:39;;;;;;;6.57;3.45;;;;;;;27.90;50.54;100571.22;6284062;22;20385;-82
2023/07/29 09:55:34;;;;;;;6.45;3.65;;;;;;;27.77;50.53;100572.38;6284103;22;20023;-82
2023/07/29 09:58:35;;;;;;;8.38;3.30;;;;;;;27.75;50.77;100570.00;6283025;22;20042;-81
2023/07/29 10:01:29;;;;;;;10.05;4.20;;;;;;;27.54;51.45;100570.50;6284012;22;20023;-82
2023/07/29 10:04:24;;;;;;;12.38;5.38;;;;;;;27.57;51.78;100570.44;6283666;22;20030;-81
2023/07/29 10:07:15;;;;;;;4.68;2.15;;;;;;;27.67;50.77;100571.41;6283995;22;20022;-82
2023/07/29 10:10:10;;;;;;;5.95;2.75;;;;;;;27.50;51.40;100564.22;6283813;22;20050;-80
2023/07/29 10:13:01;;;;;;;8.20;3.13;;;;;;;27.58;51.70;100560.06;6281946;22;20019;-82
2023/07/29 10:15:56;;;;;;;14.45;5.72;;;;;;;27.90;51.77;100550.88;6283527;22;20022;-80
2023/07/29 10:18:52;;;;;;;6.13;3.13;;;;;;;28.01;50.70;100554.97;6283928;22;20027;-82
2023/07/29 10:21:50;;;;;;;10.80;3.17;;;;;;;28.01;50.17;100549.38;6303004;22;20018;-85
2023/07/29 10:24:45;;;;;;;3.88;2.70;;;;;;;27.96;50.28;100552.72;6283024;22;20473;-83
2023/07/29 10:27:48;;;;;;;7.53;2.65;;;;;;;27.71;51.58;100546.94;6283405;22;20042;-83
2023/07/29 10:30:43;;;;;;;6.82;2.88;;;;;;;27.66;51.78;100550.28;6283454;22;20473;-83
2023/07/29 10:33:39;;;;;;;6.22;2.88;;;;;;;27.78;51.86;100544.00;6283518;22;20023;-84
2023/07/29 10:36:32;;;;;;;8.98;2.78;;;;;;;27.81;51.25;100556.28;6284047;22;20019;-84
2023/07/29 10:39:26;;;;;;;12.80;4.25;;;;;;;27.77;51.51;100552.81;6283555;22;20022;-83
2023/07/29 10:42:21;;;;;;;7.45;3.67;;;;;;;28.03;50.96;100551.75;6284259;22;20023;-82
2023/07/29 10:45:20;;;;;;;;;;;;;;;28.05;50.52;100543.69;6283242;22;20071;-81
2023/07/29 10:48:35;;;;;;;7.05;2.75;;;;;;;27.99;50.14;100537.84;6282313;22;19907;-80
2023/07/29 10:51:36;;;;;;;;;;;;;;;28.06;52.06;100540.47;6283731;22;20050;-83
2023/07/29 10:54:28;;;;;;;5.60;3.45;;;;;;;28.27;51.19;100532.78;6277051;22;19907;-81
2023/07/29 10:57:32;;;;;;;7.85;3.95;;;;;;;28.36;52.24;100538.50;6284494;22;20039;-78
2023/07/29 11:00:32;;;;;;;7.50;4.85;;;;;;;28.37;51.41;100538.06;6284382;22;20042;-78
2023/07/29 11:03:28;;;;;;;12.05;3.40;;;;;;;28.63;50.89;100535.38;6284546;22;20019;-79
2023/07/29 11:06:23;;;;;;;9.02;3.38;;;;;;;28.36;51.29;100544.09;6286113;22;20030;-80
2023/07/29 11:09:44;;;;;;;15.68;3.70;;;;;;;28.22;51.62;100539.69;6285021;22;20485;-78
2023/07/29 11:12:54;;;;;;;8.50;4.38;;;;;;;28.12;52.25;100549.16;6284949;22;20110;-79
2023/07/29 11:15:53;;;;;;;6.55;3.72;;;;;;;28.00;52.40;100547.03;6286477;22;20481;-79
2023/07/29 11:18:46;;;;;;;5.80;3.08;;;;;;;27.88;52.78;100530.97;6286193;22;20027;-78
2023/07/29 11:21:41;;;;;;;8.50;3.53;;;;;;;27.82;53.35;100529.91;6285166;22;20026;-80
2023/07/29 11:24:33;;;;;;;;;;;;;;;27.89;53.08;100529.72;6285540;22;20022;-78
2023/07/29 11:27:25;;;;;;;8.02;3.92;;;;;;;28.01;52.36;100520.63;6284989;22;19906;-79
2023/07/29 11:30:20;;;;;;;5.75;3.22;;;;;;;28.05;52.12;100524.91;6284758;22;20462;-78
2023/07/29 11:33:13;;;;;;;6.28;3.47;;;;;;;27.87;52.80;100519.00;6287482;22;20031;-87
2023/07/29 11:36:09;;;;;;;5.72;2.88;;;;;;;27.82;52.80;100511.16;6301478;22;20029;-85
2023/07/29 11:39:08;;;;;;;13.95;3.92;;;;;;;27.97;52.51;100508.78;6326971;22;20041;-87
2023/07/29 11:42:00;;;;;;;7.80;3.08;;;;;;;28.34;51.75;100510.97;6304534;22;20018;-87
2023/07/29 11:44:54;;;;;;;4.32;2.35;;;;;;;28.12;52.18;100500.81;6303368;22;20029;-88
2023/07/29 11:47:49;;;;;;;10.27;3.65;;;;;;;28.18;51.75;100502.66;6305888;22;20022;-85
2023/07/29 11:50:43;;;;;;;5.05;2.70;;;;;;;28.07;51.98;100500.09;6324549;22;20655;-88
2023/07/29 11:53:35;;;;;;;8.05;2.70;;;;;;;28.40;50.21;100494.44;6321380;22;20014;-85
2023/07/29 11:56:30;;;;;;;11.30;3.35;;;;;;;28.36;50.72;100490.94;6321429;22;20366;-82
2023/07/29 11:59:26;;;;;;;8.57;3.10;;;;;;;28.12;51.39;100496.00;6320657;22;20022;-84
2023/07/29 12:02:20;;;;;;;8.13;2.50;;;;;;;28.12;51.29;100503.63;6321753;22;20026;-86
2023/07/29 12:05:11;;;;;;;9.95;3.13;;;;;;;28.00;51.93;100494.69;6298464;22;20026;-86
2023/07/29 12:08:05;;;;;;;6.65;2.50;;;;;;;27.87;52.28;100496.63;6322016;22;20065;-87
2023/07/29 12:11:00;;;;;;;5.40;2.50;;;;;;;27.85;52.39;100496.28;6324313;22;20345;-85
2023/07/29 12:13:57;;;;;;;4.57;2.10;;;;;;;27.82;52.56;100491.59;6303031;22;20014;-86
2023/07/29 12:16:51;;;;;;;5.63;2.53;;;;;;;27.79;52.21;100489.66;6304066;22;20026;-88
2023/07/29 12:19:46;;;;;;;6.22;3.17;;;;;;;27.90;51.71;100492.97;6323031;22;20017;-88
2023/07/29 12:22:41;;;;;;;5.97;3.13;;;;;;;27.86;51.88;100492.28;6301468;22;20018;-87
2023/07/29 12:25:33;;;;;;;;;;;;;;;27.85;51.86;100487.91;6302741;22;20358;-82
2023/07/29 12:28:24;;;;;;;5.63;2.65;;;;;;;28.29;50.32;100480.75;6301860;22;20250;-86
2023/07/29 12:31:18;;;;;;;13.00;2.75;;;;;;;28.17;50.61;100478.69;6324550;22;20017;-85
2023/07/29 12:34:19;;;;;;;4.28;2.67;;;;;;;28.23;50.68;100476.16;6318252;22;20018;-85
2023/07/29 12:37:12;;;;;;;8.43;3.22;;;;;;;28.30;50.44;100473.91;6325325;22;20349;-85
2023/07/29 12:40:06;;;;;;;9.07;2.75;;;;;;;28.08;51.05;100475.72;6324596;22;20029;-85
2023/07/29 12:42:58;;;;;;;;;;;;;;;28.15;51.28;100475.53;6302181;22;20034;-85
2023/07/29 12:45:53;;;;;;;5.45;2.00;;;;;;;28.14;51.13;100481.59;6300626;22;19911;-84
2023/07/29 12:48:43;;;;;;;7.00;2.22;;;;;;;28.05;51.27;100471.78;6300179;22;20018;-83
2023/07/29 12:51:37;;;;;;;3.55;2.22;;;;;;;28.00;51.59;100469.53;6299194;22;20048;-84
2023/07/29 12:54:30;;;;;;;13.57;2.13;;;;;;;28.05;51.43;100459.81;6301317;22;20021;-85
2023/07/29 12:57:25;;;;;;;4.32;3.00;;;;;;;28.01;51.47;100459.13;6322597;22;20022;-85
2023/07/29 13:00:17;;;;;;;4.50;2.13;;;;;;;28.22;52.21;100446.59;6322305;22;20025;-84
2023/07/29 13:03:12;;;;;;;8.27;2.90;;;;;;;28.05;51.16;100437.44;6321958;22;20018;-83
2023/07/29 13:06:04;;;;;;;2.47;1.70;;;;;;;28.15;50.65;100430.00;6300152;22;20022;-84
2023/07/29 13:08:58;;;;;;;13.23;1.85;;;;;;;27.92;51.64;100434.63;6322487;22;20021;-85
2023/07/29 13:11:48;;;;;;;;;;;;;;;27.91;51.62;100433.03;6324742;22;20345;-85
2023/07/29 13:14:42;;;;;;;5.80;2.10;;;;;;;28.15;50.53;100432.81;6315415;22;19911;-84
2023/07/29 13:17:37;;;;;;;6.45;2.00;;;;;;;28.06;51.21;100431.41;6323966;22;20041;-85
2023/07/29 13:20:29;;;;;;;7.75;2.13;;;;;;;28.22;50.01;100430.63;6300923;22;20037;-85
2023/07/29 13:23:21;;;;;;;6.10;2.00;;;;;;;28.17;49.96;100428.34;6321707;22;20013;-85
2023/07/29 13:26:15;;;;;;;3.95;2.17;;;;;;;28.20;50.27;100421.09;6324755;22;20488;-85
2023/07/29 13:29:07;;;;;;;;;;;;;;;28.01;50.73;100422.78;6324454;22;20021;-84
2023/07/29 13:31:59;;;;;;;10.88;1.92;;;;;;;27.92;51.26;100423.44;6300102;22;19910;-85
2023/07/29 13:34:54;;;;;;;5.40;2.65;;;;;;;27.98;50.99;100421.66;6314997;22;20508;-84